sensor_id;sensor_type;location;lat;lon;timestamp;P1;durP1;ratioP1;P2;durP2;ratioP2
21258;SDS011;10787;53.364;-1.480;2023-07-08T00:02:29;8.90;;;5.40;;
21258;SDS011;10787;53.364;-1.480;2023-07-08T00:05:15;7.38;;;4.85;;
21258;SDS011;10787;53.364;-1.480;2023-07-08T00:08:01;11.00;;;5.07;;
21258;SDS011;10787;53.364;-1.480;2023-07-08T00:10:46;8.90;;;4.85;;
21258;SDS011;10787;53.364;-1.480;2023-07-08T00:13:31;7.88;;;5.00;;
21258;SDS011;10787;53.364;-1.480;2023-07-08T00:16:16;7.90;;;4.97;;
21258;SDS011;10787;53.364;-1.480;2023-07-08T00:19:03;6.40;;;4.90;;
21258;SDS011;10787;53.364;-1.480;2023-07-08T00:21:52;9.43;;;4.97;;
21258;SDS011;10787;53.364;-1.480;2023-07-08T00:24:36;10.30;;;5.10;;
21258;SDS011;10787;53.364;-1.480;2023-07-08T00:27:21;7.70;;;4.88;;
21258;SDS011;10787;53.364;-1.480;2023-07-08T00:33:14;10.65;;;4.93;;
21258;SDS011;10787;53.364;-1.480;2023-07-08T00:36:00;7.53;;;4.82;;
21258;SDS011;10787;53.364;-1.480;2023-07-08T00:38:45;8.55;;;4.78;;
21258;SDS011;10787;53.364;-1.480;2023-07-08T00:41:30;10.13;;;5.32;;
21258;SDS011;10787;53.364;-1.480;2023-07-08T00:44:18;8.75;;;4.90;;
21258;SDS011;10787;53.364;-1.480;2023-07-08T00:47:04;10.02;;;4.90;;
21258;SDS011;10787;53.364;-1.480;2023-07-08T00:49:55;7.53;;;4.80;;
21258;SDS011;10787;53.364;-1.480;2023-07-08T00:52:44;8.80;;;4.85;;
21258;SDS011;10787;53.364;-1.480;2023-07-08T00:55:30;9.23;;;4.72;;
21258;SDS011;10787;53.364;-1.480;2023-07-08T00:58:15;9.23;;;5.05;;
21258;SDS011;10787;53.364;-1.480;2023-07-08T01:01:03;7.88;;;4.88;;
21258;SDS011;10787;53.364;-1.480;2023-07-08T01:03:56;8.65;;;4.95;;
21258;SDS011;10787;53.364;-1.480;2023-07-08T01:06:46;8.38;;;4.53;;
21258;SDS011;10787;53.364;-1.480;2023-07-08T01:09:41;10.43;;;5.13;;
21258;SDS011;10787;53.364;-1.480;2023-07-08T01:12:31;7.25;;;5.15;;
21258;SDS011;10787;53.364;-1.480;2023-07-08T01:15:22;7.50;;;5.68;;
21258;SDS011;10787;53.364;-1.480;2023-07-08T01:18:09;10.07;;;6.40;;
21258;SDS011;10787;53.364;-1.480;2023-07-08T01:20:55;8.27;;;5.43;;
21258;SDS011;10787;53.364;-1.480;2023-07-08T01:23:43;6.95;;;5.13;;
21258;SDS011;10787;53.364;-1.480;2023-07-08T01:26:27;10.02;;;5.55;;
21258;SDS011;10787;53.364;-1.480;2023-07-08T01:29:13;7.63;;;5.35;;
21258;SDS011;10787;53.364;-1.480;2023-07-08T01:31:58;7.35;;;4.82;;
21258;SDS011;10787;53.364;-1.480;2023-07-08T01:34:46;9.00;;;5.90;;
21258;SDS011;10787;53.364;-1.480;2023-07-08T01:37:58;9.38;;;5.30;;
21258;SDS011;10787;53.364;-1.480;2023-07-08T01:40:52;9.02;;;5.80;;
21258;SDS011;10787;53.364;-1.480;2023-07-08T01:43:38;9.32;;;5.57;;
21258;SDS011;10787;53.364;-1.480;2023-07-08T01:46:23;7.60;;;5.00;;
21258;SDS011;10787;53.364;-1.480;2023-07-08T01:49:09;7.43;;;5.38;;
21258;SDS011;10787;53.364;-1.480;2023-07-08T01:51:53;9.63;;;6.05;;
21258;SDS011;10787;53.364;-1.480;2023-07-08T01:54:39;7.82;;;5.35;;
21258;SDS011;10787;53.364;-1.480;2023-07-08T01:57:23;6.50;;;5.18;;
21258;SDS011;10787;53.364;-1.480;2023-07-08T02:00:07;8.48;;;5.15;;
21258;SDS011;10787;53.364;-1.480;2023-07-08T02:02:52;8.85;;;5.60;;
21258;SDS011;10787;53.364;-1.480;2023-07-08T02:05:36;7.00;;;5.25;;
21258;SDS011;10787;53.364;-1.480;2023-07-08T02:08:20;7.07;;;5.15;;
21258;SDS011;10787;53.364;-1.480;2023-07-08T02:11:05;8.70;;;5.50;;
21258;SDS011;10787;53.364;-1.480;2023-07-08T02:13:49;9.05;;;5.55;;
21258;SDS011;10787;53.364;-1.480;2023-07-08T02:16:33;8.57;;;5.38;;
21258;SDS011;10787;53.364;-1.480;2023-07-08T02:19:18;10.27;;;5.60;;
21258;SDS011;10787;53.364;-1.480;2023-07-08T02:22:03;7.72;;;5.22;;
21258;SDS011;10787;53.364;-1.480;2023-07-08T02:24:48;7.32;;;5.50;;
21258;SDS011;10787;53.364;-1.480;2023-07-08T02:27:32;8.80;;;5.90;;
21258;SDS011;10787;53.364;-1.480;2023-07-08T02:30:16;8.68;;;5.18;;
21258;SDS011;10787;53.364;-1.480;2023-07-08T02:33:01;6.85;;;5.32;;
21258;SDS011;10787;53.364;-1.480;2023-07-08T02:35:46;6.65;;;5.28;;
21258;SDS011;10787;53.364;-1.480;2023-07-08T02:38:30;8.77;;;5.50;;
21258;SDS011;10787;53.364;-1.480;2023-07-08T02:41:15;8.68;;;5.68;;
21258;SDS011;10787;53.364;-1.480;2023-07-08T02:43:59;9.68;;;5.95;;
21258;SDS011;10787;53.364;-1.480;2023-07-08T02:46:44;7.63;;;5.63;;
21258;SDS011;10787;53.364;-1.480;2023-07-08T02:49:28;8.10;;;5.70;;
21258;SDS011;10787;53.364;-1.480;2023-07-08T02:52:13;8.60;;;5.43;;
21258;SDS011;10787;53.364;-1.480;2023-07-08T02:54:58;9.48;;;5.63;;
21258;SDS011;10787;53.364;-1.480;2023-07-08T02:57:42;8.50;;;5.50;;
21258;SDS011;10787;53.364;-1.480;2023-07-08T03:00:26;9.15;;;5.50;;
21258;SDS011;10787;53.364;-1.480;2023-07-08T03:03:10;9.50;;;5.72;;
21258;SDS011;10787;53.364;-1.480;2023-07-08T03:05:58;9.52;;;5.65;;
21258;SDS011;10787;53.364;-1.480;2023-07-08T03:08:43;9.20;;;5.82;;
21258;SDS011;10787;53.364;-1.480;2023-07-08T03:11:27;8.63;;;5.20;;
21258;SDS011;10787;53.364;-1.480;2023-07-08T03:14:12;9.57;;;5.90;;
21258;SDS011;10787;53.364;-1.480;2023-07-08T03:16:56;9.75;;;5.93;;
21258;SDS011;10787;53.364;-1.480;2023-07-08T03:19:40;8.30;;;6.18;;
21258;SDS011;10787;53.364;-1.480;2023-07-08T03:22:24;8.73;;;6.30;;
21258;SDS011;10787;53.364;-1.480;2023-07-08T03:25:08;11.20;;;6.93;;
21258;SDS011;10787;53.364;-1.480;2023-07-08T03:27:53;8.68;;;6.35;;
21258;SDS011;10787;53.364;-1.480;2023-07-08T03:30:39;9.95;;;6.60;;
21258;SDS011;10787;53.364;-1.480;2023-07-08T03:33:23;10.18;;;6.43;;
21258;SDS011;10787;53.364;-1.480;2023-07-08T03:36:10;10.45;;;6.63;;
21258;SDS011;10787;53.364;-1.480;2023-07-08T03:39:07;9.05;;;6.63;;
21258;SDS011;10787;53.364;-1.480;2023-07-08T03:41:51;8.50;;;6.28;;
21258;SDS011;10787;53.364;-1.480;2023-07-08T03:44:36;7.82;;;6.07;;
21258;SDS011;10787;53.364;-1.480;2023-07-08T03:47:21;8.30;;;5.80;;
21258;SDS011;10787;53.364;-1.480;2023-07-08T03:50:05;9.85;;;6.50;;
21258;SDS011;10787;53.364;-1.480;2023-07-08T03:52:55;8.35;;;6.38;;
21258;SDS011;10787;53.364;-1.480;2023-07-08T03:55:40;9.18;;;6.53;;
21258;SDS011;10787;53.364;-1.480;2023-07-08T03:58:24;9.52;;;6.80;;
21258;SDS011;10787;53.364;-1.480;2023-07-08T04:01:12;10.70;;;6.47;;
21258;SDS011;10787;53.364;-1.480;2023-07-08T04:04:01;11.45;;;6.50;;
21258;SDS011;10787;53.364;-1.480;2023-07-08T04:06:45;12.57;;;6.63;;
21258;SDS011;10787;53.364;-1.480;2023-07-08T04:09:30;9.73;;;6.60;;
21258;SDS011;10787;53.364;-1.480;2023-07-08T04:12:14;10.27;;;6.65;;
21258;SDS011;10787;53.364;-1.480;2023-07-08T04:14:58;9.27;;;6.28;;
21258;SDS011;10787;53.364;-1.480;2023-07-08T04:17:45;10.52;;;6.47;;
21258;SDS011;10787;53.364;-1.480;2023-07-08T04:20:31;10.93;;;6.45;;
21258;SDS011;10787;53.364;-1.480;2023-07-08T04:23:17;9.13;;;6.35;;
21258;SDS011;10787;53.364;-1.480;2023-07-08T04:26:04;9.25;;;6.57;;
21258;SDS011;10787;53.364;-1.480;2023-07-08T04:28:49;8.73;;;6.70;;
21258;SDS011;10787;53.364;-1.480;2023-07-08T04:31:34;9.40;;;6.53;;
21258;SDS011;10787;53.364;-1.480;2023-07-08T04:34:18;9.43;;;6.35;;
21258;SDS011;10787;53.364;-1.480;2023-07-08T04:37:04;10.75;;;6.30;;
21258;SDS011;10787;53.364;-1.480;2023-07-08T04:39:48;12.57;;;6.30;;
21258;SDS011;10787;53.364;-1.480;2023-07-08T04:42:32;10.88;;;6.53;;
21258;SDS011;10787;53.364;-1.480;2023-07-08T04:45:16;8.98;;;6.40;;
21258;SDS011;10787;53.364;-1.480;2023-07-08T04:48:01;8.65;;;6.45;;
21258;SDS011;10787;53.364;-1.480;2023-07-08T04:50:55;8.75;;;6.63;;
21258;SDS011;10787;53.364;-1.480;2023-07-08T04:53:41;10.98;;;6.20;;
21258;SDS011;10787;53.364;-1.480;2023-07-08T04:56:33;8.80;;;5.82;;
21258;SDS011;10787;53.364;-1.480;2023-07-08T04:59:25;8.65;;;5.80;;
21258;SDS011;10787;53.364;-1.480;2023-07-08T05:02:09;10.43;;;6.80;;
21258;SDS011;10787;53.364;-1.480;2023-07-08T05:04:53;9.05;;;6.80;;
21258;SDS011;10787;53.364;-1.480;2023-07-08T05:07:38;11.43;;;7.03;;
21258;SDS011;10787;53.364;-1.480;2023-07-08T05:10:22;9.70;;;6.72;;
21258;SDS011;10787;53.364;-1.480;2023-07-08T05:13:07;8.48;;;6.68;;
21258;SDS011;10787;53.364;-1.480;2023-07-08T05:15:52;9.65;;;6.90;;
21258;SDS011;10787;53.364;-1.480;2023-07-08T05:18:36;10.45;;;7.05;;
21258;SDS011;10787;53.364;-1.480;2023-07-08T05:21:20;9.15;;;6.82;;
21258;SDS011;10787;53.364;-1.480;2023-07-08T05:24:05;8.55;;;6.43;;
21258;SDS011;10787;53.364;-1.480;2023-07-08T05:26:50;8.70;;;6.65;;
21258;SDS011;10787;53.364;-1.480;2023-07-08T05:29:35;10.13;;;6.47;;
21258;SDS011;10787;53.364;-1.480;2023-07-08T05:32:20;10.15;;;7.00;;
21258;SDS011;10787;53.364;-1.480;2023-07-08T05:35:05;7.88;;;6.15;;
21258;SDS011;10787;53.364;-1.480;2023-07-08T05:37:49;10.13;;;6.88;;
21258;SDS011;10787;53.364;-1.480;2023-07-08T05:40:33;8.50;;;6.43;;
21258;SDS011;10787;53.364;-1.480;2023-07-08T05:43:18;9.27;;;6.70;;
21258;SDS011;10787;53.364;-1.480;2023-07-08T05:46:02;9.13;;;6.70;;
21258;SDS011;10787;53.364;-1.480;2023-07-08T05:48:47;10.18;;;6.85;;
21258;SDS011;10787;53.364;-1.480;2023-07-08T05:51:33;9.82;;;6.53;;
21258;SDS011;10787;53.364;-1.480;2023-07-08T05:54:18;13.20;;;6.57;;
21258;SDS011;10787;53.364;-1.480;2023-07-08T05:57:02;10.73;;;6.35;;
21258;SDS011;10787;53.364;-1.480;2023-07-08T05:59:46;9.23;;;6.40;;
21258;SDS011;10787;53.364;-1.480;2023-07-08T06:02:31;10.73;;;6.60;;
21258;SDS011;10787;53.364;-1.480;2023-07-08T06:05:15;9.98;;;6.40;;
21258;SDS011;10787;53.364;-1.480;2023-07-08T06:08:00;10.50;;;6.60;;
21258;SDS011;10787;53.364;-1.480;2023-07-08T06:10:44;10.77;;;6.72;;
21258;SDS011;10787;53.364;-1.480;2023-07-08T06:13:29;8.82;;;6.15;;
21258;SDS011;10787;53.364;-1.480;2023-07-08T06:16:14;10.75;;;6.60;;
21258;SDS011;10787;53.364;-1.480;2023-07-08T06:18:58;8.07;;;6.07;;
21258;SDS011;10787;53.364;-1.480;2023-07-08T06:21:42;12.63;;;7.10;;
21258;SDS011;10787;53.364;-1.480;2023-07-08T06:24:27;11.80;;;6.88;;
21258;SDS011;10787;53.364;-1.480;2023-07-08T06:27:11;12.80;;;6.95;;
21258;SDS011;10787;53.364;-1.480;2023-07-08T06:29:55;9.60;;;6.55;;
21258;SDS011;10787;53.364;-1.480;2023-07-08T06:32:40;9.38;;;6.50;;
21258;SDS011;10787;53.364;-1.480;2023-07-08T06:35:24;12.70;;;7.97;;
21258;SDS011;10787;53.364;-1.480;2023-07-08T06:38:08;10.05;;;6.55;;
21258;SDS011;10787;53.364;-1.480;2023-07-08T06:40:54;9.73;;;6.70;;
21258;SDS011;10787;53.364;-1.480;2023-07-08T06:43:38;10.40;;;6.80;;
21258;SDS011;10787;53.364;-1.480;2023-07-08T06:46:22;10.90;;;7.10;;
21258;SDS011;10787;53.364;-1.480;2023-07-08T06:49:06;9.55;;;6.35;;
21258;SDS011;10787;53.364;-1.480;2023-07-08T06:51:53;8.70;;;6.95;;
21258;SDS011;10787;53.364;-1.480;2023-07-08T06:54:37;10.15;;;6.82;;
21258;SDS011;10787;53.364;-1.480;2023-07-08T06:57:21;10.35;;;6.35;;
21258;SDS011;10787;53.364;-1.480;2023-07-08T07:00:06;9.48;;;6.25;;
21258;SDS011;10787;53.364;-1.480;2023-07-08T07:02:51;9.80;;;6.93;;
21258;SDS011;10787;53.364;-1.480;2023-07-08T07:05:35;9.73;;;6.43;;
21258;SDS011;10787;53.364;-1.480;2023-07-08T07:08:19;10.48;;;6.78;;
21258;SDS011;10787;53.364;-1.480;2023-07-08T07:11:04;11.73;;;7.88;;
21258;SDS011;10787;53.364;-1.480;2023-07-08T07:13:48;9.45;;;6.82;;
21258;SDS011;10787;53.364;-1.480;2023-07-08T07:16:32;9.95;;;7.07;;
21258;SDS011;10787;53.364;-1.480;2023-07-08T07:19:16;10.45;;;6.70;;
21258;SDS011;10787;53.364;-1.480;2023-07-08T07:22:00;12.25;;;7.40;;
21258;SDS011;10787;53.364;-1.480;2023-07-08T07:24:45;12.30;;;7.30;;
21258;SDS011;10787;53.364;-1.480;2023-07-08T07:27:30;11.65;;;7.40;;
21258;SDS011;10787;53.364;-1.480;2023-07-08T07:30:14;11.38;;;7.53;;
21258;SDS011;10787;53.364;-1.480;2023-07-08T07:32:59;9.50;;;6.55;;
21258;SDS011;10787;53.364;-1.480;2023-07-08T07:35:44;11.80;;;6.75;;
21258;SDS011;10787;53.364;-1.480;2023-07-08T07:38:29;9.35;;;6.85;;
21258;SDS011;10787;53.364;-1.480;2023-07-08T07:41:16;9.75;;;6.60;;
21258;SDS011;10787;53.364;-1.480;2023-07-08T07:44:01;11.63;;;6.60;;
21258;SDS011;10787;53.364;-1.480;2023-07-08T07:46:45;11.55;;;6.90;;
21258;SDS011;10787;53.364;-1.480;2023-07-08T07:49:30;9.20;;;6.78;;
21258;SDS011;10787;53.364;-1.480;2023-07-08T07:52:15;11.50;;;6.68;;
21258;SDS011;10787;53.364;-1.480;2023-07-08T07:55:03;9.40;;;6.38;;
21258;SDS011;10787;53.364;-1.480;2023-07-08T07:57:47;13.18;;;6.50;;
21258;SDS011;10787;53.364;-1.480;2023-07-08T08:00:31;11.85;;;6.45;;
21258;SDS011;10787;53.364;-1.480;2023-07-08T08:03:15;8.95;;;6.35;;
21258;SDS011;10787;53.364;-1.480;2023-07-08T08:06:00;10.50;;;6.55;;
21258;SDS011;10787;53.364;-1.480;2023-07-08T08:08:44;8.32;;;6.75;;
21258;SDS011;10787;53.364;-1.480;2023-07-08T08:11:29;9.52;;;6.78;;
21258;SDS011;10787;53.364;-1.480;2023-07-08T08:14:13;12.40;;;6.50;;
21258;SDS011;10787;53.364;-1.480;2023-07-08T08:16:57;10.23;;;7.07;;
21258;SDS011;10787;53.364;-1.480;2023-07-08T08:19:42;13.35;;;8.80;;
21258;SDS011;10787;53.364;-1.480;2023-07-08T08:22:26;10.40;;;6.10;;
21258;SDS011;10787;53.364;-1.480;2023-07-08T08:25:11;9.40;;;6.80;;
21258;SDS011;10787;53.364;-1.480;2023-07-08T08:27:56;8.82;;;6.57;;
21258;SDS011;10787;53.364;-1.480;2023-07-08T08:30:40;14.30;;;8.77;;
21258;SDS011;10787;53.364;-1.480;2023-07-08T08:33:25;8.80;;;6.60;;
21258;SDS011;10787;53.364;-1.480;2023-07-08T08:36:09;10.48;;;6.40;;
21258;SDS011;10787;53.364;-1.480;2023-07-08T08:38:53;10.15;;;6.55;;
21258;SDS011;10787;53.364;-1.480;2023-07-08T08:41:37;9.20;;;5.80;;
21258;SDS011;10787;53.364;-1.480;2023-07-08T08:44:28;8.48;;;6.40;;
21258;SDS011;10787;53.364;-1.480;2023-07-08T08:53:18;9.27;;;5.90;;
21258;SDS011;10787;53.364;-1.480;2023-07-08T09:02:30;9.98;;;5.88;;
21258;SDS011;10787;53.364;-1.480;2023-07-08T09:05:25;8.63;;;6.20;;
21258;SDS011;10787;53.364;-1.480;2023-07-08T09:08:15;10.13;;;6.32;;
21258;SDS011;10787;53.364;-1.480;2023-07-08T09:11:17;9.15;;;5.85;;
21258;SDS011;10787;53.364;-1.480;2023-07-08T09:14:15;10.23;;;6.28;;
21258;SDS011;10787;53.364;-1.480;2023-07-08T09:17:23;7.45;;;6.13;;
21258;SDS011;10787;53.364;-1.480;2023-07-08T09:26:07;10.98;;;6.82;;
21258;SDS011;10787;53.364;-1.480;2023-07-08T09:28:57;14.93;;;8.10;;
21258;SDS011;10787;53.364;-1.480;2023-07-08T09:31:41;8.95;;;6.28;;
21258;SDS011;10787;53.364;-1.480;2023-07-08T09:34:37;12.00;;;6.00;;
21258;SDS011;10787;53.364;-1.480;2023-07-08T09:37:35;11.15;;;6.68;;
21258;SDS011;10787;53.364;-1.480;2023-07-08T09:40:30;10.48;;;5.80;;
21258;SDS011;10787;53.364;-1.480;2023-07-08T09:43:26;8.35;;;5.70;;
21258;SDS011;10787;53.364;-1.480;2023-07-08T09:46:20;10.00;;;6.30;;
21258;SDS011;10787;53.364;-1.480;2023-07-08T09:49:21;9.80;;;5.82;;
21258;SDS011;10787;53.364;-1.480;2023-07-08T09:52:14;10.85;;;6.75;;
21258;SDS011;10787;53.364;-1.480;2023-07-08T09:55:00;9.80;;;5.97;;
21258;SDS011;10787;53.364;-1.480;2023-07-08T09:57:45;10.52;;;6.22;;
21258;SDS011;10787;53.364;-1.480;2023-07-08T10:00:32;9.25;;;6.57;;
21258;SDS011;10787;53.364;-1.480;2023-07-08T10:03:22;15.40;;;8.68;;
21258;SDS011;10787;53.364;-1.480;2023-07-08T10:06:24;17.77;;;9.48;;
21258;SDS011;10787;53.364;-1.480;2023-07-08T10:09:21;11.88;;;6.53;;
21258;SDS011;10787;53.364;-1.480;2023-07-08T10:12:09;10.38;;;6.20;;
21258;SDS011;10787;53.364;-1.480;2023-07-08T10:15:01;10.15;;;6.45;;
21258;SDS011;10787;53.364;-1.480;2023-07-08T10:17:55;8.65;;;6.38;;
21258;SDS011;10787;53.364;-1.480;2023-07-08T10:20:49;10.57;;;7.95;;
21258;SDS011;10787;53.364;-1.480;2023-07-08T10:26:35;9.60;;;6.50;;
21258;SDS011;10787;53.364;-1.480;2023-07-08T10:35:28;11.63;;;6.13;;
21258;SDS011;10787;53.364;-1.480;2023-07-08T10:45:03;9.48;;;6.38;;
21258;SDS011;10787;53.364;-1.480;2023-07-08T11:06:34;10.38;;;6.88;;
21258;SDS011;10787;53.364;-1.480;2023-07-08T11:09:31;10.70;;;7.50;;
21258;SDS011;10787;53.364;-1.480;2023-07-08T11:12:35;12.35;;;7.63;;
21258;SDS011;10787;53.364;-1.480;2023-07-08T11:18:25;15.48;;;8.38;;
21258;SDS011;10787;53.364;-1.480;2023-07-08T11:21:48;18.45;;;11.25;;
21258;SDS011;10787;53.364;-1.480;2023-07-08T11:24:43;14.77;;;8.43;;
21258;SDS011;10787;53.364;-1.480;2023-07-08T11:27:32;14.63;;;7.45;;
21258;SDS011;10787;53.364;-1.480;2023-07-08T11:30:22;12.52;;;7.57;;
21258;SDS011;10787;53.364;-1.480;2023-07-08T11:33:11;12.38;;;7.10;;
21258;SDS011;10787;53.364;-1.480;2023-07-08T11:35:58;10.80;;;7.30;;
21258;SDS011;10787;53.364;-1.480;2023-07-08T11:38:48;12.07;;;7.18;;
21258;SDS011;10787;53.364;-1.480;2023-07-08T11:41:41;11.32;;;7.75;;
21258;SDS011;10787;53.364;-1.480;2023-07-08T11:44:26;11.95;;;7.35;;
21258;SDS011;10787;53.364;-1.480;2023-07-08T11:47:12;14.32;;;7.72;;
21258;SDS011;10787;53.364;-1.480;2023-07-08T11:50:01;11.82;;;7.97;;
21258;SDS011;10787;53.364;-1.480;2023-07-08T11:53:30;12.65;;;7.93;;
21258;SDS011;10787;53.364;-1.480;2023-07-08T11:55:57;10.88;;;7.80;;
21258;SDS011;10787;53.364;-1.480;2023-07-08T12:04:35;10.25;;;7.57;;
21258;SDS011;10787;53.364;-1.480;2023-07-08T12:07:44;11.35;;;7.50;;
21258;SDS011;10787;53.364;-1.480;2023-07-08T12:10:37;12.63;;;8.73;;
21258;SDS011;10787;53.364;-1.480;2023-07-08T12:13:24;18.15;;;12.38;;
21258;SDS011;10787;53.364;-1.480;2023-07-08T12:16:11;16.30;;;10.90;;
21258;SDS011;10787;53.364;-1.480;2023-07-08T12:18:56;18.17;;;12.27;;
21258;SDS011;10787;53.364;-1.480;2023-07-08T12:21:43;15.68;;;10.93;;
21258;SDS011;10787;53.364;-1.480;2023-07-08T12:24:28;16.88;;;9.75;;
21258;SDS011;10787;53.364;-1.480;2023-07-08T12:27:12;12.10;;;8.02;;
21258;SDS011;10787;53.364;-1.480;2023-07-08T12:29:57;16.38;;;9.40;;
21258;SDS011;10787;53.364;-1.480;2023-07-08T12:32:42;14.50;;;10.10;;
21258;SDS011;10787;53.364;-1.480;2023-07-08T12:35:31;13.80;;;8.70;;
21258;SDS011;10787;53.364;-1.480;2023-07-08T12:38:19;12.27;;;8.00;;
21258;SDS011;10787;53.364;-1.480;2023-07-08T12:41:27;11.77;;;7.97;;
21258;SDS011;10787;53.364;-1.480;2023-07-08T12:44:22;11.25;;;7.68;;
21258;SDS011;10787;53.364;-1.480;2023-07-08T12:47:08;12.40;;;7.47;;
21258;SDS011;10787;53.364;-1.480;2023-07-08T12:49:53;10.18;;;7.40;;
21258;SDS011;10787;53.364;-1.480;2023-07-08T12:52:38;12.35;;;7.80;;
21258;SDS011;10787;53.364;-1.480;2023-07-08T12:55:23;11.98;;;8.25;;
21258;SDS011;10787;53.364;-1.480;2023-07-08T12:58:24;11.75;;;8.15;;
21258;SDS011;10787;53.364;-1.480;2023-07-08T13:01:30;13.25;;;8.20;;
21258;SDS011;10787;53.364;-1.480;2023-07-08T13:04:15;15.55;;;7.93;;
21258;SDS011;10787;53.364;-1.480;2023-07-08T13:07:00;9.50;;;7.13;;
21258;SDS011;10787;53.364;-1.480;2023-07-08T13:09:46;10.07;;;6.45;;
21258;SDS011;10787;53.364;-1.480;2023-07-08T13:12:41;9.30;;;6.13;;
21258;SDS011;10787;53.364;-1.480;2023-07-08T13:15:47;9.15;;;5.65;;
21258;SDS011;10787;53.364;-1.480;2023-07-08T13:18:33;7.05;;;5.20;;
21258;SDS011;10787;53.364;-1.480;2023-07-08T13:21:19;7.97;;;5.50;;
21258;SDS011;10787;53.364;-1.480;2023-07-08T13:24:07;7.93;;;5.30;;
21258;SDS011;10787;53.364;-1.480;2023-07-08T13:26:57;8.13;;;5.40;;
21258;SDS011;10787;53.364;-1.480;2023-07-08T13:29:41;10.52;;;5.28;;
21258;SDS011;10787;53.364;-1.480;2023-07-08T13:32:30;8.15;;;4.40;;
21258;SDS011;10787;53.364;-1.480;2023-07-08T13:35:34;7.57;;;3.97;;
21258;SDS011;10787;53.364;-1.480;2023-07-08T13:38:22;8.05;;;4.30;;
21258;SDS011;10787;53.364;-1.480;2023-07-08T13:41:09;7.18;;;4.15;;
21258;SDS011;10787;53.364;-1.480;2023-07-08T13:43:53;6.22;;;3.70;;
21258;SDS011;10787;53.364;-1.480;2023-07-08T13:46:39;7.22;;;4.13;;
21258;SDS011;10787;53.364;-1.480;2023-07-08T13:49:42;6.72;;;3.95;;
21258;SDS011;10787;53.364;-1.480;2023-07-08T13:52:28;6.65;;;3.80;;
21258;SDS011;10787;53.364;-1.480;2023-07-08T13:55:17;6.55;;;3.97;;
21258;SDS011;10787;53.364;-1.480;2023-07-08T13:58:02;6.25;;;4.07;;
21258;SDS011;10787;53.364;-1.480;2023-07-08T14:00:47;7.93;;;3.92;;
21258;SDS011;10787;53.364;-1.480;2023-07-08T14:03:31;6.95;;;3.60;;
21258;SDS011;10787;53.364;-1.480;2023-07-08T14:06:16;5.57;;;3.65;;
21258;SDS011;10787;53.364;-1.480;2023-07-08T14:12:00;4.53;;;3.17;;
21258;SDS011;10787;53.364;-1.480;2023-07-08T14:14:44;7.40;;;3.70;;
21258;SDS011;10787;53.364;-1.480;2023-07-08T14:17:29;7.78;;;3.60;;
21258;SDS011;10787;53.364;-1.480;2023-07-08T14:20:15;5.78;;;3.17;;
21258;SDS011;10787;53.364;-1.480;2023-07-08T14:23:00;6.97;;;3.40;;
21258;SDS011;10787;53.364;-1.480;2023-07-08T14:25:45;5.10;;;3.78;;
21258;SDS011;10787;53.364;-1.480;2023-07-08T14:28:29;5.57;;;3.50;;
21258;SDS011;10787;53.364;-1.480;2023-07-08T14:31:15;5.45;;;3.50;;
21258;SDS011;10787;53.364;-1.480;2023-07-08T14:34:05;5.50;;;3.63;;
21258;SDS011;10787;53.364;-1.480;2023-07-08T14:36:55;5.78;;;3.33;;
21258;SDS011;10787;53.364;-1.480;2023-07-08T14:39:39;7.07;;;3.67;;
21258;SDS011;10787;53.364;-1.480;2023-07-08T14:42:24;6.05;;;4.00;;
21258;SDS011;10787;53.364;-1.480;2023-07-08T14:45:08;8.27;;;4.15;;
21258;SDS011;10787;53.364;-1.480;2023-07-08T14:47:53;6.88;;;5.13;;
21258;SDS011;10787;53.364;-1.480;2023-07-08T14:50:38;7.18;;;5.07;;
21258;SDS011;10787;53.364;-1.480;2023-07-08T14:53:23;8.32;;;4.78;;
21258;SDS011;10787;53.364;-1.480;2023-07-08T14:56:17;6.95;;;4.88;;
21258;SDS011;10787;53.364;-1.480;2023-07-08T14:59:02;8.30;;;4.50;;
21258;SDS011;10787;53.364;-1.480;2023-07-08T15:01:46;8.30;;;5.03;;
21258;SDS011;10787;53.364;-1.480;2023-07-08T15:04:31;6.50;;;4.85;;
21258;SDS011;10787;53.364;-1.480;2023-07-08T15:07:15;7.00;;;5.13;;
21258;SDS011;10787;53.364;-1.480;2023-07-08T15:10:00;7.25;;;5.55;;
21258;SDS011;10787;53.364;-1.480;2023-07-08T15:12:44;7.43;;;5.50;;
21258;SDS011;10787;53.364;-1.480;2023-07-08T15:15:29;8.60;;;5.20;;
21258;SDS011;10787;53.364;-1.480;2023-07-08T15:18:16;8.10;;;5.10;;
21258;SDS011;10787;53.364;-1.480;2023-07-08T15:21:01;7.97;;;5.47;;
21258;SDS011;10787;53.364;-1.480;2023-07-08T15:23:47;9.10;;;5.22;;
21258;SDS011;10787;53.364;-1.480;2023-07-08T15:26:31;6.72;;;5.15;;
21258;SDS011;10787;53.364;-1.480;2023-07-08T15:29:19;7.20;;;5.15;;
21258;SDS011;10787;53.364;-1.480;2023-07-08T15:32:12;7.25;;;5.28;;
21258;SDS011;10787;53.364;-1.480;2023-07-08T15:34:59;8.75;;;5.70;;
21258;SDS011;10787;53.364;-1.480;2023-07-08T15:37:44;9.35;;;5.28;;
21258;SDS011;10787;53.364;-1.480;2023-07-08T15:40:33;9.05;;;5.78;;
21258;SDS011;10787;53.364;-1.480;2023-07-08T15:43:18;8.80;;;5.82;;
21258;SDS011;10787;53.364;-1.480;2023-07-08T15:46:03;8.38;;;5.28;;
21258;SDS011;10787;53.364;-1.480;2023-07-08T15:48:47;10.07;;;5.00;;
21258;SDS011;10787;53.364;-1.480;2023-07-08T15:51:32;8.75;;;4.90;;
21258;SDS011;10787;53.364;-1.480;2023-07-08T15:54:17;6.90;;;4.10;;
21258;SDS011;10787;53.364;-1.480;2023-07-08T15:57:02;6.25;;;3.65;;
21258;SDS011;10787;53.364;-1.480;2023-07-08T15:59:50;5.47;;;3.42;;
21258;SDS011;10787;53.364;-1.480;2023-07-08T16:02:36;6.95;;;4.32;;
21258;SDS011;10787;53.364;-1.480;2023-07-08T16:05:21;6.20;;;3.72;;
21258;SDS011;10787;53.364;-1.480;2023-07-08T16:08:08;4.53;;;3.20;;
21258;SDS011;10787;53.364;-1.480;2023-07-08T16:11:03;6.50;;;3.53;;
21258;SDS011;10787;53.364;-1.480;2023-07-08T16:13:52;5.40;;;3.70;;
21258;SDS011;10787;53.364;-1.480;2023-07-08T16:16:36;5.72;;;3.72;;
21258;SDS011;10787;53.364;-1.480;2023-07-08T16:19:21;6.20;;;4.10;;
21258;SDS011;10787;53.364;-1.480;2023-07-08T16:22:06;8.63;;;4.10;;
21258;SDS011;10787;53.364;-1.480;2023-07-08T16:24:50;9.32;;;4.53;;
21258;SDS011;10787;53.364;-1.480;2023-07-08T16:27:34;5.82;;;4.05;;
21258;SDS011;10787;53.364;-1.480;2023-07-08T16:30:20;6.55;;;4.60;;
21258;SDS011;10787;53.364;-1.480;2023-07-08T16:33:06;6.93;;;3.72;;
21258;SDS011;10787;53.364;-1.480;2023-07-08T16:35:51;8.95;;;4.35;;
21258;SDS011;10787;53.364;-1.480;2023-07-08T16:38:35;7.57;;;3.63;;
21258;SDS011;10787;53.364;-1.480;2023-07-08T16:41:20;6.18;;;3.65;;
21258;SDS011;10787;53.364;-1.480;2023-07-08T16:44:15;5.63;;;3.60;;
21258;SDS011;10787;53.364;-1.480;2023-07-08T16:47:00;5.72;;;3.53;;
21258;SDS011;10787;53.364;-1.480;2023-07-08T16:49:44;6.70;;;5.05;;
21258;SDS011;10787;53.364;-1.480;2023-07-08T16:52:28;6.00;;;3.42;;
21258;SDS011;10787;53.364;-1.480;2023-07-08T16:55:14;6.78;;;3.63;;
21258;SDS011;10787;53.364;-1.480;2023-07-08T16:58:01;7.80;;;4.78;;
21258;SDS011;10787;53.364;-1.480;2023-07-08T17:00:45;8.07;;;4.10;;
21258;SDS011;10787;53.364;-1.480;2023-07-08T17:03:30;7.20;;;4.10;;
21258;SDS011;10787;53.364;-1.480;2023-07-08T17:06:17;7.13;;;4.07;;
21258;SDS011;10787;53.364;-1.480;2023-07-08T17:09:01;6.18;;;3.85;;
21258;SDS011;10787;53.364;-1.480;2023-07-08T17:11:48;8.32;;;3.88;;
21258;SDS011;10787;53.364;-1.480;2023-07-08T17:14:32;5.10;;;3.80;;
21258;SDS011;10787;53.364;-1.480;2023-07-08T17:17:17;9.00;;;5.40;;
21258;SDS011;10787;53.364;-1.480;2023-07-08T17:20:21;7.82;;;4.20;;
21258;SDS011;10787;53.364;-1.480;2023-07-08T17:23:12;8.48;;;4.40;;
21258;SDS011;10787;53.364;-1.480;2023-07-08T17:25:58;5.07;;;3.92;;
21258;SDS011;10787;53.364;-1.480;2023-07-08T17:28:42;6.55;;;4.18;;
21258;SDS011;10787;53.364;-1.480;2023-07-08T17:31:27;6.60;;;4.20;;
21258;SDS011;10787;53.364;-1.480;2023-07-08T17:34:22;7.45;;;4.22;;
21258;SDS011;10787;53.364;-1.480;2023-07-08T17:37:09;6.15;;;4.10;;